sensor_id;sensor_type;location;lat;lon;timestamp;pressure;altitude;pressure_sealevel;temperature;humidity
59545;BME280;45368;55.002;-1.592;2022-07-06T00:01:29;101707.01;;;15.49;55.20
59545;BME280;45368;55.002;-1.592;2022-07-06T00:04:07;101709.57;;;15.50;56.18
59545;BME280;45368;55.002;-1.592;2022-07-06T00:06:35;101713.49;;;15.90;55.45
59545;BME280;45368;55.002;-1.592;2022-07-06T00:09:02;101720.89;;;15.29;56.18
59545;BME280;45368;55.002;-1.592;2022-07-06T00:11:29;101722.64;;;15.30;56.18
59545;BME280;45368;55.002;-1.592;2022-07-06T00:13:59;101718.29;;;15.71;56.07
59545;BME280;45368;55.002;-1.592;2022-07-06T00:16:26;101716.13;;;15.57;57.50
59545;BME280;45368;55.002;-1.592;2022-07-06T00:18:55;101706.22;;;15.43;56.89
59545;BME280;45368;55.002;-1.592;2022-07-06T00:21:22;101704.25;;;15.28;57.23
59545;BME280;45368;55.002;-1.592;2022-07-06T00:23:50;101698.55;;;15.43;56.91
59545;BME280;45368;55.002;-1.592;2022-07-06T00:26:18;101702.17;;;14.92;58.15
59545;BME280;45368;55.002;-1.592;2022-07-06T00:28:45;101700.69;;;14.34;60.61
59545;BME280;45368;55.002;-1.592;2022-07-06T00:31:13;101693.42;;;14.80;58.87
59545;BME280;45368;55.002;-1.592;2022-07-06T00:33:40;101682.99;;;14.80;59.79
59545;BME280;45368;55.002;-1.592;2022-07-06T00:36:08;101688.89;;;14.31;60.96
59545;BME280;45368;55.002;-1.592;2022-07-06T00:38:36;101685.30;;;15.41;58.14
59545;BME280;45368;55.002;-1.592;2022-07-06T00:41:03;101692.83;;;14.80;58.99
59545;BME280;45368;55.002;-1.592;2022-07-06T00:43:47;101686.72;;;14.54;60.34
59545;BME280;45368;55.002;-1.592;2022-07-06T00:46:15;101688.56;;;14.65;60.57
59545;BME280;45368;55.002;-1.592;2022-07-06T00:48:42;101684.41;;;14.56;60.37
59545;BME280;45368;55.002;-1.592;2022-07-06T00:51:10;101676.40;;;14.50;60.56
59545;BME280;45368;55.002;-1.592;2022-07-06T00:53:38;101677.13;;;14.11;62.16
59545;BME280;45368;55.002;-1.592;2022-07-06T00:56:05;101684.89;;;14.83;61.04
59545;BME280;45368;55.002;-1.592;2022-07-06T00:58:32;101679.96;;;14.71;60.73
59545;BME280;45368;55.002;-1.592;2022-07-06T01:00:59;101673.10;;;14.88;60.83
59545;BME280;45368;55.002;-1.592;2022-07-06T01:03:26;101673.45;;;14.47;61.32
59545;BME280;45368;55.002;-1.592;2022-07-06T01:05:53;101674.22;;;14.24;61.73
59545;BME280;45368;55.002;-1.592;2022-07-06T01:08:19;101677.05;;;14.38;61.44
59545;BME280;45368;55.002;-1.592;2022-07-06T01:10:47;101675.19;;;14.52;61.22
59545;BME280;45368;55.002;-1.592;2022-07-06T01:13:14;101675.02;;;14.53;60.59
59545;BME280;45368;55.002;-1.592;2022-07-06T01:15:42;101673.14;;;14.21;60.83
59545;BME280;45368;55.002;-1.592;2022-07-06T01:18:10;101674.57;;;14.51;59.92
59545;BME280;45368;55.002;-1.592;2022-07-06T01:20:37;101676.90;;;14.20;60.79
59545;BME280;45368;55.002;-1.592;2022-07-06T01:23:04;101670.65;;;15.03;60.17
59545;BME280;45368;55.002;-1.592;2022-07-06T01:25:31;101668.32;;;15.55;58.80
59545;BME280;45368;55.002;-1.592;2022-07-06T01:27:58;101664.02;;;15.06;59.69
59545;BME280;45368;55.002;-1.592;2022-07-06T01:30:27;101656.61;;;15.05;60.26
59545;BME280;45368;55.002;-1.592;2022-07-06T01:32:54;101656.87;;;14.11;64.07
59545;BME280;45368;55.002;-1.592;2022-07-06T01:35:22;101653.58;;;14.40;64.23
59545;BME280;45368;55.002;-1.592;2022-07-06T01:37:51;101659.76;;;14.43;65.11
59545;BME280;45368;55.002;-1.592;2022-07-06T01:40:18;101652.61;;;14.63;64.32
59545;BME280;45368;55.002;-1.592;2022-07-06T01:42:45;101655.85;;;14.50;64.20
59545;BME280;45368;55.002;-1.592;2022-07-06T01:45:12;101645.53;;;14.52;64.16
59545;BME280;45368;55.002;-1.592;2022-07-06T01:47:39;101651.43;;;13.89;65.34
59545;BME280;45368;55.002;-1.592;2022-07-06T01:50:08;101645.79;;;14.32;64.13
59545;BME280;45368;55.002;-1.592;2022-07-06T01:52:35;101647.63;;;14.34;64.66
59545;BME280;45368;55.002;-1.592;2022-07-06T01:55:03;101643.91;;;14.43;64.51
59545;BME280;45368;55.002;-1.592;2022-07-06T01:57:31;101644.55;;;14.16;65.39
59545;BME280;45368;55.002;-1.592;2022-07-06T01:59:59;101642.44;;;14.81;63.60
59545;BME280;45368;55.002;-1.592;2022-07-06T02:02:26;101642.57;;;14.92;63.40
59545;BME280;45368;55.002;-1.592;2022-07-06T02:04:54;101636.51;;;14.59;64.73
59545;BME280;45368;55.002;-1.592;2022-07-06T02:07:20;101636.49;;;14.27;65.15
59545;BME280;45368;55.002;-1.592;2022-07-06T02:09:47;101635.74;;;13.85;66.83
59545;BME280;45368;55.002;-1.592;2022-07-06T02:12:16;101629.34;;;14.03;67.09
59545;BME280;45368;55.002;-1.592;2022-07-06T02:14:43;101627.62;;;13.82;67.78
59545;BME280;45368;55.002;-1.592;2022-07-06T02:17:11;101630.48;;;14.01;67.65
59545;BME280;45368;55.002;-1.592;2022-07-06T02:19:37;101634.57;;;13.65;69.35
59545;BME280;45368;55.002;-1.592;2022-07-06T02:22:04;101620.82;;;13.29;69.93
59545;BME280;45368;55.002;-1.592;2022-07-06T02:24:31;101623.22;;;13.33;69.08
59545;BME280;45368;55.002;-1.592;2022-07-06T02:28:03;101614.81;;;14.18;66.78
59545;BME280;45368;55.002;-1.592;2022-07-06T02:30:31;101612.04;;;14.04;66.57
59545;BME280;45368;55.002;-1.592;2022-07-06T02:33:02;101608.76;;;13.87;68.00
59545;BME280;45368;55.002;-1.592;2022-07-06T02:35:29;101601.19;;;13.77;68.50
59545;BME280;45368;55.002;-1.592;2022-07-06T02:37:57;101598.53;;;13.81;67.95
59545;BME280;45368;55.002;-1.592;2022-07-06T02:40:25;101604.73;;;13.74;68.95
59545;BME280;45368;55.002;-1.592;2022-07-06T02:42:53;101594.64;;;13.63;69.20
59545;BME280;45368;55.002;-1.592;2022-07-06T02:45:20;101590.02;;;13.57;70.07
59545;BME280;45368;55.002;-1.592;2022-07-06T02:47:48;101596.51;;;13.45;69.92
59545;BME280;45368;55.002;-1.592;2022-07-06T02:50:15;101599.60;;;12.81;72.12
59545;BME280;45368;55.002;-1.592;2022-07-06T02:52:43;101594.60;;;13.72;69.60
59545;BME280;45368;55.002;-1.592;2022-07-06T02:55:10;101587.22;;;13.68;70.19
59545;BME280;45368;55.002;-1.592;2022-07-06T02:57:36;101585.04;;;13.61;69.98
59545;BME280;45368;55.002;-1.592;2022-07-06T03:00:05;101583.94;;;13.27;71.67
59545;BME280;45368;55.002;-1.592;2022-07-06T03:05:44;101571.55;;;14.05;70.65
59545;BME280;45368;55.002;-1.592;2022-07-06T03:08:11;101570.61;;;13.46;70.67
59545;BME280;45368;55.002;-1.592;2022-07-06T03:10:38;101569.84;;;14.18;68.76
59545;BME280;45368;55.002;-1.592;2022-07-06T03:13:05;101563.27;;;13.67;70.42
59545;BME280;45368;55.002;-1.592;2022-07-06T03:15:32;101568.77;;;13.38;70.50
59545;BME280;45368;55.002;-1.592;2022-07-06T03:17:59;101564.57;;;13.64;70.79
59545;BME280;45368;55.002;-1.592;2022-07-06T03:20:26;101567.19;;;13.81;70.22
59545;BME280;45368;55.002;-1.592;2022-07-06T03:22:53;101566.82;;;13.36;70.52
59545;BME280;45368;55.002;-1.592;2022-07-06T03:25:20;101567.66;;;13.49;69.92
59545;BME280;45368;55.002;-1.592;2022-07-06T03:27:48;101569.18;;;13.51;70.26
59545;BME280;45368;55.002;-1.592;2022-07-06T03:30:15;101571.11;;;14.07;68.80
59545;BME280;45368;55.002;-1.592;2022-07-06T03:32:42;101573.22;;;13.66;70.83
59545;BME280;45368;55.002;-1.592;2022-07-06T03:35:09;101575.89;;;13.63;71.15
59545;BME280;45368;55.002;-1.592;2022-07-06T03:37:36;101575.60;;;13.94;70.21
59545;BME280;45368;55.002;-1.592;2022-07-06T03:40:05;101573.84;;;13.90;70.39
59545;BME280;45368;55.002;-1.592;2022-07-06T03:42:32;101579.22;;;13.48;71.12
59545;BME280;45368;55.002;-1.592;2022-07-06T03:44:59;101570.35;;;13.76;70.20
59545;BME280;45368;55.002;-1.592;2022-07-06T03:47:26;101570.72;;;13.60;70.92
59545;BME280;45368;55.002;-1.592;2022-07-06T03:49:58;101569.89;;;13.89;69.91
59545;BME280;45368;55.002;-1.592;2022-07-06T03:53:18;101570.18;;;13.94;70.52
59545;BME280;45368;55.002;-1.592;2022-07-06T03:55:57;101573.32;;;13.44;70.81
59545;BME280;45368;55.002;-1.592;2022-07-06T03:59:10;101575.49;;;13.84;71.06
59545;BME280;45368;55.002;-1.592;2022-07-06T04:01:37;101574.15;;;13.87;69.94
59545;BME280;45368;55.002;-1.592;2022-07-06T04:04:05;101573.05;;;13.64;69.35
59545;BME280;45368;55.002;-1.592;2022-07-06T04:28:13;101578.47;;;13.13;74.97
59545;BME280;45368;55.002;-1.592;2022-07-06T04:30:39;101574.63;;;12.25;73.08
59545;BME280;45368;55.002;-1.592;2022-07-06T04:33:05;101576.62;;;12.94;70.08
59545;BME280;45368;55.002;-1.592;2022-07-06T04:35:32;101581.15;;;14.22;69.47
59545;BME280;45368;55.002;-1.592;2022-07-06T04:38:00;101578.94;;;14.58;69.52
59545;BME280;45368;55.002;-1.592;2022-07-06T04:40:27;101580.77;;;14.11;72.12
59545;BME280;45368;55.002;-1.592;2022-07-06T04:42:54;101572.53;;;13.99;72.40
59545;BME280;45368;55.002;-1.592;2022-07-06T04:45:21;101570.27;;;13.87;71.66
59545;BME280;45368;55.002;-1.592;2022-07-06T04:47:48;101572.59;;;13.64;72.82
59545;BME280;45368;55.002;-1.592;2022-07-06T04:50:15;101578.67;;;13.99;72.38
59545;BME280;45368;55.002;-1.592;2022-07-06T04:52:42;101575.82;;;13.75;73.23
59545;BME280;45368;55.002;-1.592;2022-07-06T04:55:09;101575.14;;;13.76;73.22
59545;BME280;45368;55.002;-1.592;2022-07-06T04:57:36;101574.18;;;14.30;71.27
59545;BME280;45368;55.002;-1.592;2022-07-06T05:00:05;101568.79;;;14.11;71.23
59545;BME280;45368;55.002;-1.592;2022-07-06T05:02:32;101569.16;;;14.51;71.05
59545;BME280;45368;55.002;-1.592;2022-07-06T05:05:00;101561.27;;;14.44;70.60
59545;BME280;45368;55.002;-1.592;2022-07-06T05:07:27;101563.07;;;14.40;70.88
59545;BME280;45368;55.002;-1.592;2022-07-06T05:09:54;101565.20;;;13.96;70.71
59545;BME280;45368;55.002;-1.592;2022-07-06T05:12:22;101565.24;;;14.06;71.03
59545;BME280;45368;55.002;-1.592;2022-07-06T05:14:49;101558.27;;;14.42;70.84
59545;BME280;45368;55.002;-1.592;2022-07-06T05:17:16;101556.15;;;14.52;70.20
59545;BME280;45368;55.002;-1.592;2022-07-06T05:19:43;101574.14;;;14.59;70.54
59545;BME280;45368;55.002;-1.592;2022-07-06T05:22:10;101573.67;;;14.11;71.21
59545;BME280;45368;55.002;-1.592;2022-07-06T05:24:38;101576.45;;;14.28;71.28
59545;BME280;45368;55.002;-1.592;2022-07-06T05:27:05;101573.91;;;14.33;70.90
59545;BME280;45368;55.002;-1.592;2022-07-06T05:29:31;101575.60;;;14.18;70.63
59545;BME280;45368;55.002;-1.592;2022-07-06T05:31:59;101588.83;;;14.40;70.51
59545;BME280;45368;55.002;-1.592;2022-07-06T05:34:26;101592.79;;;14.51;69.54
59545;BME280;45368;55.002;-1.592;2022-07-06T05:36:53;101596.40;;;14.00;71.58
59545;BME280;45368;55.002;-1.592;2022-07-06T05:39:21;101600.29;;;14.02;70.79
59545;BME280;45368;55.002;-1.592;2022-07-06T05:41:48;101599.46;;;14.16;70.51
59545;BME280;45368;55.002;-1.592;2022-07-06T05:44:15;101608.46;;;14.03;70.98
59545;BME280;45368;55.002;-1.592;2022-07-06T05:46:43;101610.96;;;14.27;71.54
59545;BME280;45368;55.002;-1.592;2022-07-06T05:49:10;101604.42;;;14.23;70.42
59545;BME280;45368;55.002;-1.592;2022-07-06T05:51:37;101604.05;;;14.46;69.32
59545;BME280;45368;55.002;-1.592;2022-07-06T05:54:04;101591.39;;;15.18;68.33
59545;BME280;45368;55.002;-1.592;2022-07-06T05:56:30;101584.93;;;14.53;69.10
59545;BME280;45368;55.002;-1.592;2022-07-06T05:58:57;101583.66;;;14.97;67.73
59545;BME280;45368;55.002;-1.592;2022-07-06T06:01:24;101582.47;;;14.30;69.07
59545;BME280;45368;55.002;-1.592;2022-07-06T06:03:51;101580.16;;;14.88;67.95
59545;BME280;45368;55.002;-1.592;2022-07-06T06:06:19;101574.45;;;14.99;67.57
59545;BME280;45368;55.002;-1.592;2022-07-06T06:08:46;101573.25;;;15.20;67.50
59545;BME280;45368;55.002;-1.592;2022-07-06T06:11:13;101572.45;;;14.69;67.48
59545;BME280;45368;55.002;-1.592;2022-07-06T06:13:40;101566.44;;;14.27;69.66
59545;BME280;45368;55.002;-1.592;2022-07-06T06:16:08;101555.62;;;14.92;67.99
59545;BME280;45368;55.002;-1.592;2022-07-06T06:18:35;101557.12;;;14.97;68.23
59545;BME280;45368;55.002;-1.592;2022-07-06T06:21:02;101560.66;;;14.76;68.56
59545;BME280;45368;55.002;-1.592;2022-07-06T06:23:30;101568.01;;;14.30;69.57
59545;BME280;45368;55.002;-1.592;2022-07-06T06:25:57;101566.65;;;14.98;68.40
59545;BME280;45368;55.002;-1.592;2022-07-06T06:28:24;101568.02;;;14.84;68.21
59545;BME280;45368;55.002;-1.592;2022-07-06T06:30:51;101562.97;;;15.02;66.83
59545;BME280;45368;55.002;-1.592;2022-07-06T06:33:19;101565.32;;;14.99;67.81
59545;BME280;45368;55.002;-1.592;2022-07-06T06:35:49;101562.64;;;14.79;67.26
59545;BME280;45368;55.002;-1.592;2022-07-06T06:38:17;101561.25;;;15.10;66.43
59545;BME280;45368;55.002;-1.592;2022-07-06T06:40:45;101560.63;;;15.22;67.39
59545;BME280;45368;55.002;-1.592;2022-07-06T06:43:13;101557.72;;;14.52;68.34
59545;BME280;45368;55.002;-1.592;2022-07-06T06:45:40;101558.87;;;14.69;69.27
59545;BME280;45368;55.002;-1.592;2022-07-06T06:48:08;101555.70;;;14.34;70.31
59545;BME280;45368;55.002;-1.592;2022-07-06T06:50:35;101558.43;;;14.75;68.98
59545;BME280;45368;55.002;-1.592;2022-07-06T06:53:02;101556.11;;;15.07;67.43
59545;BME280;45368;55.002;-1.592;2022-07-06T06:55:29;101562.94;;;15.00;68.07
59545;BME280;45368;55.002;-1.592;2022-07-06T06:57:56;101567.96;;;15.41;66.96
59545;BME280;45368;55.002;-1.592;2022-07-06T07:00:23;101565.38;;;15.08;66.88
59545;BME280;45368;55.002;-1.592;2022-07-06T07:02:51;101564.98;;;14.70;68.78
59545;BME280;45368;55.002;-1.592;2022-07-06T07:05:18;101566.78;;;14.68;68.65
59545;BME280;45368;55.002;-1.592;2022-07-06T07:07:44;101566.27;;;14.61;69.35
59545;BME280;45368;55.002;-1.592;2022-07-06T07:10:11;101571.69;;;14.69;67.76
59545;BME280;45368;55.002;-1.592;2022-07-06T07:12:43;101571.56;;;14.54;68.70
59545;BME280;45368;55.002;-1.592;2022-07-06T07:15:11;101577.51;;;14.26;68.45
59545;BME280;45368;55.002;-1.592;2022-07-06T07:17:39;101573.48;;;14.69;68.65
59545;BME280;45368;55.002;-1.592;2022-07-06T07:20:07;101573.33;;;14.67;68.82
59545;BME280;45368;55.002;-1.592;2022-07-06T07:22:34;101565.37;;;15.05;68.80
59545;BME280;45368;55.002;-1.592;2022-07-06T07:25:02;101566.37;;;14.03;69.60
59545;BME280;45368;55.002;-1.592;2022-07-06T07:27:29;101549.58;;;15.16;66.41
59545;BME280;45368;55.002;-1.592;2022-07-06T07:29:56;101549.82;;;14.79;67.28
59545;BME280;45368;55.002;-1.592;2022-07-06T07:32:25;101557.83;;;15.21;66.59
59545;BME280;45368;55.002;-1.592;2022-07-06T07:34:52;101545.67;;;14.86;66.55
59545;BME280;45368;55.002;-1.592;2022-07-06T07:37:19;101541.84;;;15.44;64.66
59545;BME280;45368;55.002;-1.592;2022-07-06T07:39:46;101552.11;;;15.08;66.08
59545;BME280;45368;55.002;-1.592;2022-07-06T07:42:13;101554.73;;;14.68;67.30
59545;BME280;45368;55.002;-1.592;2022-07-06T07:44:41;101548.62;;;14.64;67.27
59545;BME280;45368;55.002;-1.592;2022-07-06T07:47:09;101542.57;;;14.62;67.59
59545;BME280;45368;55.002;-1.592;2022-07-06T07:49:36;101545.08;;;14.61;67.73
59545;BME280;45368;55.002;-1.592;2022-07-06T07:52:03;101546.28;;;14.48;66.68
59545;BME280;45368;55.002;-1.592;2022-07-06T07:54:31;101552.02;;;15.57;65.32
59545;BME280;45368;55.002;-1.592;2022-07-06T07:56:59;101553.06;;;15.40;64.60
59545;BME280;45368;55.002;-1.592;2022-07-06T07:59:26;101554.70;;;15.79;64.57
59545;BME280;45368;55.002;-1.592;2022-07-06T08:01:54;101558.86;;;15.52;64.25
59545;BME280;45368;55.002;-1.592;2022-07-06T08:04:22;101563.94;;;15.10;65.22
59545;BME280;45368;55.002;-1.592;2022-07-06T08:06:50;101564.12;;;14.50;65.45
59545;BME280;45368;55.002;-1.592;2022-07-06T08:09:33;101564.82;;;14.55;64.95
59545;BME280;45368;55.002;-1.592;2022-07-06T08:12:11;101564.94;;;15.05;63.21
59545;BME280;45368;55.002;-1.592;2022-07-06T08:14:38;101563.66;;;14.57;64.23
59545;BME280;45368;55.002;-1.592;2022-07-06T08:17:05;101558.50;;;14.81;62.66
59545;BME280;45368;55.002;-1.592;2022-07-06T08:19:52;101554.43;;;15.62;61.78
59545;BME280;45368;55.002;-1.592;2022-07-06T08:22:19;101562.23;;;14.98;62.53
59545;BME280;45368;55.002;-1.592;2022-07-06T08:24:46;101559.92;;;15.13;63.28
59545;BME280;45368;55.002;-1.592;2022-07-06T08:27:15;101549.50;;;15.32;63.35
59545;BME280;45368;55.002;-1.592;2022-07-06T08:29:42;101550.48;;;15.23;63.41
59545;BME280;45368;55.002;-1.592;2022-07-06T08:32:10;101544.20;;;14.83;64.36
59545;BME280;45368;55.002;-1.592;2022-07-06T08:34:37;101547.24;;;15.19;63.96
59545;BME280;45368;55.002;-1.592;2022-07-06T08:37:05;101561.75;;;14.89;65.67
59545;BME280;45368;55.002;-1.592;2022-07-06T08:39:32;101529.99;;;15.35;64.70
59545;BME280;45368;55.002;-1.592;2022-07-06T08:42:01;101527.90;;;15.47;65.05
59545;BME280;45368;55.002;-1.592;2022-07-06T08:44:29;101542.69;;;15.19;64.58
59545;BME280;45368;55.002;-1.592;2022-07-06T08:46:57;101542.70;;;15.14;64.45
59545;BME280;45368;55.002;-1.592;2022-07-06T08:49:26;101549.16;;;15.14;64.11
59545;BME280;45368;55.002;-1.592;2022-07-06T08:51:54;101541.59;;;15.69;62.35
59545;BME280;45368;55.002;-1.592;2022-07-06T08:54:22;101549.61;;;15.54;62.90
59545;BME280;45368;55.002;-1.592;2022-07-06T08:56:50;101556.28;;;16.06;61.56
59545;BME280;45368;55.002;-1.592;2022-07-06T08:59:17;101555.92;;;15.90;60.67
59545;BME280;45368;55.002;-1.592;2022-07-06T09:01:45;101560.95;;;15.99;61.17
59545;BME280;45368;55.002;-1.592;2022-07-06T09:04:13;101556.90;;;15.91;61.32
59545;BME280;45368;55.002;-1.592;2022-07-06T09:06:43;101549.22;;;15.74;62.06
59545;BME280;45368;55.002;-1.592;2022-07-06T09:09:16;101545.80;;;15.50;62.70
59545;BME280;45368;55.002;-1.592;2022-07-06T09:11:46;101553.42;;;15.47;62.49
59545;BME280;45368;55.002;-1.592;2022-07-06T09:14:14;101552.55;;;15.44;63.01
59545;BME280;45368;55.002;-1.592;2022-07-06T09:16:41;101558.05;;;15.30;63.59
59545;BME280;45368;55.002;-1.592;2022-07-06T09:19:11;101552.92;;;15.56;62.17
59545;BME280;45368;55.002;-1.592;2022-07-06T09:21:38;101546.72;;;15.70;61.84
59545;BME280;45368;55.002;-1.592;2022-07-06T09:24:08;101541.85;;;15.92;62.61
59545;BME280;45368;55.002;-1.592;2022-07-06T09:26:36;101549.79;;;15.59;63.49
59545;BME280;45368;55.002;-1.592;2022-07-06T09:29:04;101547.81;;;15.46;63.59
59545;BME280;45368;55.002;-1.592;2022-07-06T09:31:32;101548.15;;;15.33;64.07
59545;BME280;45368;55.002;-1.592;2022-07-06T09:34:01;101550.63;;;15.93;62.66
59545;BME280;45368;55.002;-1.592;2022-07-06T09:36:38;101552.64;;;15.20;64.40
59545;BME280;45368;55.002;-1.592;2022-07-06T09:39:23;101552.06;;;15.24;64.54
59545;BME280;45368;55.002;-1.592;2022-07-06T09:41:54;101552.78;;;15.12;65.10
59545;BME280;45368;55.002;-1.592;2022-07-06T09:44:23;101546.08;;;15.47;64.89
59545;BME280;45368;55.002;-1.592;2022-07-06T09:46:50;101548.21;;;14.94;66.37
59545;BME280;45368;55.002;-1.592;2022-07-06T09:49:18;101545.04;;;14.73;66.93
59545;BME280;45368;55.002;-1.592;2022-07-06T09:51:46;101551.78;;;15.24;66.54
59545;BME280;45368;55.002;-1.592;2022-07-06T09:54:14;101536.40;;;14.94;66.89
59545;BME280;45368;55.002;-1.592;2022-07-06T09:56:43;101541.19;;;14.87;66.93
59545;BME280;45368;55.002;-1.592;2022-07-06T09:59:11;101527.30;;;14.74;67.10
59545;BME280;45368;55.002;-1.592;2022-07-06T10:01:39;101531.68;;;14.36;67.23
59545;BME280;45368;55.002;-1.592;2022-07-06T10:04:07;101525.99;;;15.41;65.77
59545;BME280;45368;55.002;-1.592;2022-07-06T10:06:35;101525.17;;;15.35;66.31
59545;BME280;45368;55.002;-1.592;2022-07-06T10:09:06;101515.79;;;15.35;66.37
59545;BME280;45368;55.002;-1.592;2022-07-06T10:11:38;101520.80;;;15.21;65.92
59545;BME280;45368;55.002;-1.592;2022-07-06T10:14:07;101524.06;;;15.13;66.59
59545;BME280;45368;55.002;-1.592;2022-07-06T10:16:36;101519.13;;;15.06;66.91
59545;BME280;45368;55.002;-1.592;2022-07-06T10:19:06;101522.39;;;14.87;67.00
59545;BME280;45368;55.002;-1.592;2022-07-06T10:21:36;101529.08;;;15.53;66.99
59545;BME280;45368;55.002;-1.592;2022-07-06T10:24:05;101520.28;;;15.36;66.95
59545;BME280;45368;55.002;-1.592;2022-07-06T10:26:33;101516.97;;;15.40;66.04
59545;BME280;45368;55.002;-1.592;2022-07-06T10:29:01;101510.59;;;15.46;65.47
59545;BME280;45368;55.002;-1.592;2022-07-06T10:31:31;101514.12;;;15.40;66.63
59545;BME280;45368;55.002;-1.592;2022-07-06T10:34:01;101509.15;;;14.97;67.90
59545;BME280;45368;55.002;-1.592;2022-07-06T10:36:30;101512.77;;;15.84;65.44
59545;BME280;45368;55.002;-1.592;2022-07-06T10:38:58;101504.42;;;15.79;65.71
59545;BME280;45368;55.002;-1.592;2022-07-06T10:41:33;101505.13;;;15.63;64.26
59545;BME280;45368;55.002;-1.592;2022-07-06T10:44:15;101496.92;;;15.50;64.75
59545;BME280;45368;55.002;-1.592;2022-07-06T10:46:51;101511.13;;;15.38;64.90
59545;BME280;45368;55.002;-1.592;2022-07-06T10:49:19;101499.38;;;15.22;66.02
59545;BME280;45368;55.002;-1.592;2022-07-06T10:51:47;101497.72;;;16.02;64.27
59545;BME280;45368;55.002;-1.592;2022-07-06T10:54:15;101498.66;;;15.69;64.63
59545;BME280;45368;55.002;-1.592;2022-07-06T10:56:44;101496.42;;;15.87;63.89
59545;BME280;45368;55.002;-1.592;2022-07-06T10:59:13;101485.19;;;15.33;65.00
59545;BME280;45368;55.002;-1.592;2022-07-06T11:02:11;101463.48;;;15.99;63.26
59545;BME280;45368;55.002;-1.592;2022-07-06T11:04:39;101449.23;;;15.89;63.60
59545;BME280;45368;55.002;-1.592;2022-07-06T11:07:09;101445.88;;;16.12;62.77
59545;BME280;45368;55.002;-1.592;2022-07-06T11:09:36;101459.66;;;16.17;62.33
59545;BME280;45368;55.002;-1.592;2022-07-06T11:12:14;101456.04;;;15.92;62.43
59545;BME280;45368;55.002;-1.592;2022-07-06T11:14:42;101455.98;;;16.24;62.18
59545;BME280;45368;55.002;-1.592;2022-07-06T11:17:10;101440.56;;;16.13;62.12
59545;BME280;45368;55.002;-1.592;2022-07-06T11:19:38;101449.23;;;15.89;63.72
59545;BME280;45368;55.002;-1.592;2022-07-06T11:22:16;101433.58;;;16.13;64.29
59545;BME280;45368;55.002;-1.592;2022-07-06T11:24:44;101431.90;;;16.42;61.67
59545;BME280;45368;55.002;-1.592;2022-07-06T11:27:12;101426.20;;;16.66;61.69
59545;BME280;45368;55.002;-1.592;2022-07-06T11:29:40;101418.52;;;16.08;61.92
59545;BME280;45368;55.002;-1.592;2022-07-06T11:32:09;101414.70;;;16.20;61.41
59545;BME280;45368;55.002;-1.592;2022-07-06T11:34:38;101423.57;;;16.82;60.97
59545;BME280;45368;55.002;-1.592;2022-07-06T11:37:07;101424.29;;;16.99;60.27
59545;BME280;45368;55.002;-1.592;2022-07-06T11:39:36;101427.50;;;16.78;60.60
59545;BME280;45368;55.002;-1.592;2022-07-06T11:42:05;101415.00;;;17.10;60.26
59545;BME280;45368;55.002;-1.592;2022-07-06T11:44:32;101416.85;;;17.28;58.97
59545;BME280;45368;55.002;-1.592;2022-07-06T11:47:00;101427.53;;;17.36;58.77
59545;BME280;45368;55.002;-1.592;2022-07-06T11:49:28;101420.41;;;17.14;58.93
59545;BME280;45368;55.002;-1.592;2022-07-06T11:51:56;101423.47;;;16.89;60.03
59545;BME280;45368;55.002;-1.592;2022-07-06T11:54:25;101422.89;;;17.34;59.46
59545;BME280;45368;55.002;-1.592;2022-07-06T11:56:56;101425.00;;;17.25;59.66
59545;BME280;45368;55.002;-1.592;2022-07-06T11:59:25;101415.88;;;17.05;59.60
59545;BME280;45368;55.002;-1.592;2022-07-06T12:01:58;101429.82;;;16.49;59.91
59545;BME280;45368;55.002;-1.592;2022-07-06T12:04:26;101430.51;;;16.80;59.56
59545;BME280;45368;55.002;-1.592;2022-07-06T12:06:54;101423.74;;;16.58;60.60
59545;BME280;45368;55.002;-1.592;2022-07-06T12:09:22;101425.78;;;16.64;60.47
59545;BME280;45368;55.002;-1.592;2022-07-06T12:11:49;101420.31;;;16.45;61.21
59545;BME280;45368;55.002;-1.592;2022-07-06T12:14:19;101420.74;;;16.26;61.68
59545;BME280;45368;55.002;-1.592;2022-07-06T12:16:47;101427.52;;;16.39;61.29
59545;BME280;45368;55.002;-1.592;2022-07-06T12:19:16;101423.52;;;16.29;61.30
59545;BME280;45368;55.002;-1.592;2022-07-06T12:21:52;101417.13;;;16.53;60.20
59545;BME280;45368;55.002;-1.592;2022-07-06T12:25:34;101418.05;;;16.49;61.70
59545;BME280;45368;55.002;-1.592;2022-07-06T12:28:24;101402.86;;;16.46;61.13
59545;BME280;45368;55.002;-1.592;2022-07-06T12:30:52;101394.94;;;17.43;59.22
59545;BME280;45368;55.002;-1.592;2022-07-06T12:33:25;101385.39;;;17.39;58.76
59545;BME280;45368;55.002;-1.592;2022-07-06T12:35:56;101381.77;;;16.93;59.88
59545;BME280;45368;55.002;-1.592;2022-07-06T12:38:24;101377.53;;;16.83;60.71
59545;BME280;45368;55.002;-1.592;2022-07-06T12:41:09;101372.49;;;17.37;59.84
59545;BME280;45368;55.002;-1.592;2022-07-06T12:43:37;101368.15;;;17.27;59.69
59545;BME280;45368;55.002;-1.592;2022-07-06T12:46:38;101364.42;;;16.33;62.39
59545;BME280;45368;55.002;-1.592;2022-07-06T12:49:15;101361.45;;;16.06;61.90
59545;BME280;45368;55.002;-1.592;2022-07-06T12:51:51;101367.51;;;16.04;62.91
59545;BME280;45368;55.002;-1.592;2022-07-06T12:54:19;101359.15;;;16.65;61.60
59545;BME280;45368;55.002;-1.592;2022-07-06T12:57:05;101362.22;;;17.18;60.20
59545;BME280;45368;55.002;-1.592;2022-07-06T12:59:38;101361.84;;;16.90;60.42
59545;BME280;45368;55.002;-1.592;2022-07-06T13:02:08;101353.53;;;17.10;59.07
59545;BME280;45368;55.002;-1.592;2022-07-06T13:04:37;101349.30;;;16.89;60.33
59545;BME280;45368;55.002;-1.592;2022-07-06T13:07:05;101340.26;;;17.06;60.68
59545;BME280;45368;55.002;-1.592;2022-07-06T13:09:33;101343.42;;;16.93;60.41
59545;BME280;45368;55.002;-1.592;2022-07-06T13:12:01;101351.20;;;17.54;59.85
59545;BME280;45368;55.002;-1.592;2022-07-06T13:14:28;101356.07;;;17.22;59.41
59545;BME280;45368;55.002;-1.592;2022-07-06T13:16:55;101346.67;;;17.17;58.97